sensor_id;sensor_type;location;lat;lon;timestamp;pressure;altitude;pressure_sealevel;temperature;humidity
64095;BME280;50353;51.420;5.682;2023-02-14T00:01:47;103191.53;;;2.84;84.14
64095;BME280;50353;51.420;5.682;2023-02-14T00:04:13;103194.72;;;2.58;82.95
64095;BME280;50353;51.420;5.682;2023-02-14T00:06:39;103188.66;;;2.61;82.00
64095;BME280;50353;51.420;5.682;2023-02-14T00:09:07;103191.53;;;2.84;83.87
64095;BME280;50353;51.420;5.682;2023-02-14T00:11:32;103194.16;;;2.87;83.79
64095;BME280;50353;51.420;5.682;2023-02-14T00:13:58;103195.81;;;2.79;81.99
64095;BME280;50353;51.420;5.682;2023-02-14T00:16:42;103192.22;;;2.66;81.32
64095;BME280;50353;51.420;5.682;2023-02-14T00:19:11;103182.78;;;2.80;80.73
64095;BME280;50353;51.420;5.682;2023-02-14T00:21:37;103186.88;;;2.57;81.79
64095;BME280;50353;51.420;5.682;2023-02-14T00:24:08;103171.16;;;2.52;81.98
64095;BME280;50353;51.420;5.682;2023-02-14T00:26:34;103181.66;;;2.55;82.00
64095;BME280;50353;51.420;5.682;2023-02-14T00:28:59;103178.28;;;2.67;82.72
64095;BME280;50353;51.420;5.682;2023-02-14T00:31:24;103181.06;;;2.82;83.82
64095;BME280;50353;51.420;5.682;2023-02-14T00:33:50;103172.19;;;2.68;84.33
64095;BME280;50353;51.420;5.682;2023-02-14T00:36:16;103161.75;;;2.66;86.09
64095;BME280;50353;51.420;5.682;2023-02-14T00:38:43;103172.06;;;2.56;85.12
64095;BME280;50353;51.420;5.682;2023-02-14T00:41:09;103172.19;;;2.66;83.54
64095;BME280;50353;51.420;5.682;2023-02-14T00:43:34;103159.88;;;2.54;82.75
64095;BME280;50353;51.420;5.682;2023-02-14T00:45:59;103172.91;;;2.53;81.75
64095;BME280;50353;51.420;5.682;2023-02-14T00:48:25;103171.13;;;2.50;82.20
64095;BME280;50353;51.420;5.682;2023-02-14T00:50:50;103171.13;;;2.50;81.50
64095;BME280;50353;51.420;5.682;2023-02-14T00:53:15;103173.00;;;2.61;83.16
64095;BME280;50353;51.420;5.682;2023-02-14T00:55:43;103152.03;;;2.56;82.85
64095;BME280;50353;51.420;5.682;2023-02-14T00:58:09;103170.41;;;2.62;83.19
64095;BME280;50353;51.420;5.682;2023-02-14T01:00:34;103166.72;;;2.45;85.17
64095;BME280;50353;51.420;5.682;2023-02-14T01:02:59;103177.19;;;2.48;82.76
64095;BME280;50353;51.420;5.682;2023-02-14T01:05:24;103176.28;;;2.43;82.75
64095;BME280;50353;51.420;5.682;2023-02-14T01:07:50;103180.56;;;2.36;83.72
64095;BME280;50353;51.420;5.682;2023-02-14T01:10:15;103180.56;;;2.38;84.58
64095;BME280;50353;51.420;5.682;2023-02-14T01:12:40;103180.72;;;2.50;83.68
64095;BME280;50353;51.420;5.682;2023-02-14T01:15:06;103184.00;;;2.32;84.26
64095;BME280;50353;51.420;5.682;2023-02-14T01:17:31;103178.78;;;2.32;86.29
64095;BME280;50353;51.420;5.682;2023-02-14T01:19:57;103183.06;;;2.27;84.76
64095;BME280;50353;51.420;5.682;2023-02-14T01:22:22;103188.19;;;2.20;85.83
64095;BME280;50353;51.420;5.682;2023-02-14T01:24:47;103183.06;;;2.28;85.08
64095;BME280;50353;51.420;5.682;2023-02-14T01:27:12;103179.50;;;2.23;83.74
64095;BME280;50353;51.420;5.682;2023-02-14T01:29:38;103178.69;;;2.27;84.39
64095;BME280;50353;51.420;5.682;2023-02-14T01:32:03;103173.41;;;2.21;85.13
64095;BME280;50353;51.420;5.682;2023-02-14T01:34:28;103178.13;;;2.51;84.29
64095;BME280;50353;51.420;5.682;2023-02-14T01:36:54;103180.50;;;2.33;85.52
64095;BME280;50353;51.420;5.682;2023-02-14T01:39:19;103175.13;;;2.19;85.27
64095;BME280;50353;51.420;5.682;2023-02-14T01:41:46;103176.94;;;2.26;86.46
64095;BME280;50353;51.420;5.682;2023-02-14T01:46:42;103179.53;;;2.26;nan
64095;BME280;50353;51.420;5.682;2023-02-14T01:49:09;103177.75;;;2.20;84.23
64095;BME280;50353;51.420;5.682;2023-02-14T01:51:38;103173.47;;;2.27;85.33
64095;BME280;50353;51.420;5.682;2023-02-14T01:54:05;103168.28;;;2.30;86.46
64095;BME280;50353;51.420;5.682;2023-02-14T01:56:35;103170.25;;;2.47;86.58
64095;BME280;50353;51.420;5.682;2023-02-14T01:59:05;103157.78;;;2.24;84.31
64095;BME280;50353;51.420;5.682;2023-02-14T02:01:32;103170.50;;;1.98;83.09
64095;BME280;50353;51.420;5.682;2023-02-14T02:04:01;103157.56;;;2.07;83.82
64095;BME280;50353;51.420;5.682;2023-02-14T02:06:34;103143.81;;;2.22;85.00
64095;BME280;50353;51.420;5.682;2023-02-14T02:11:33;103168.97;;;1.52;83.38
64095;BME280;50353;51.420;5.682;2023-02-14T02:13:58;103164.41;;;1.99;87.41
64095;BME280;50353;51.420;5.682;2023-02-14T02:24:28;103155.97;;;2.17;85.54
64095;BME280;50353;51.420;5.682;2023-02-14T02:33:05;103151.34;;;1.97;84.01
64095;BME280;50353;51.420;5.682;2023-02-14T02:35:51;103129.59;;;1.95;86.15
64095;BME280;50353;51.420;5.682;2023-02-14T02:38:47;103140.91;;;1.96;84.76
64095;BME280;50353;51.420;5.682;2023-02-14T02:41:54;103143.63;;;2.05;86.65
64095;BME280;50353;51.420;5.682;2023-02-14T02:44:40;103127.59;;;2.46;86.87
64095;BME280;50353;51.420;5.682;2023-02-14T02:53:06;103117.78;;;3.16;89.96
64095;BME280;50353;51.420;5.682;2023-02-14T02:58:28;103116.59;;;2.78;85.77
64095;BME280;50353;51.420;5.682;2023-02-14T03:00:56;103130.16;;;2.42;88.03
64095;BME280;50353;51.420;5.682;2023-02-14T03:03:24;103133.38;;;2.19;85.84
64095;BME280;50353;51.420;5.682;2023-02-14T03:06:08;103140.22;;;2.91;87.23
64095;BME280;50353;51.420;5.682;2023-02-14T03:08:34;103140.97;;;2.79;89.63
64095;BME280;50353;51.420;5.682;2023-02-14T03:11:00;103138.31;;;2.74;88.40
64095;BME280;50353;51.420;5.682;2023-02-14T03:13:50;103149.44;;;2.58;90.13
64095;BME280;50353;51.420;5.682;2023-02-14T03:16:33;103142.00;;;2.15;85.20
64095;BME280;50353;51.420;5.682;2023-02-14T03:19:04;103149.56;;;2.68;87.27
64095;BME280;50353;51.420;5.682;2023-02-14T03:27:05;103153.91;;;2.65;88.69
64095;BME280;50353;51.420;5.682;2023-02-14T03:29:49;103156.38;;;2.52;90.04
64095;BME280;50353;51.420;5.682;2023-02-14T03:37:54;103157.78;;;2.24;89.72
64095;BME280;50353;51.420;5.682;2023-02-14T03:43:14;103134.94;;;2.87;90.91
64095;BME280;50353;51.420;5.682;2023-02-14T03:45:55;103149.16;;;3.19;92.11
64095;BME280;50353;51.420;5.682;2023-02-14T03:48:23;103153.50;;;3.20;92.63
64095;BME280;50353;51.420;5.682;2023-02-14T03:50:51;103153.41;;;3.06;92.37
64095;BME280;50353;51.420;5.682;2023-02-14T03:53:21;103154.22;;;2.99;91.76
64095;BME280;50353;51.420;5.682;2023-02-14T03:56:11;103137.59;;;2.89;91.06
64095;BME280;50353;51.420;5.682;2023-02-14T03:58:42;103154.44;;;3.24;91.83
64095;BME280;50353;51.420;5.682;2023-02-14T04:01:16;103152.56;;;3.07;93.28
64095;BME280;50353;51.420;5.682;2023-02-14T04:03:45;103150.78;;;3.04;90.96
64095;BME280;50353;51.420;5.682;2023-02-14T04:06:11;103158.31;;;2.70;90.43
64095;BME280;50353;51.420;5.682;2023-02-14T04:08:37;103155.59;;;2.61;91.50
64095;BME280;50353;51.420;5.682;2023-02-14T04:11:03;103145.84;;;2.45;87.25
64095;BME280;50353;51.420;5.682;2023-02-14T04:13:29;103144.53;;;2.88;88.55
64095;BME280;50353;51.420;5.682;2023-02-14T04:15:54;103149.50;;;2.62;89.98
64095;BME280;50353;51.420;5.682;2023-02-14T04:18:19;103149.59;;;2.70;88.74
64095;BME280;50353;51.420;5.682;2023-02-14T04:21:04;103156.84;;;3.00;90.71
64095;BME280;50353;51.420;5.682;2023-02-14T04:23:29;103153.31;;;2.95;94.04
64095;BME280;50353;51.420;5.682;2023-02-14T04:25:54;103155.19;;;3.09;93.12
64095;BME280;50353;51.420;5.682;2023-02-14T04:28:20;103149.75;;;2.88;92.54
64095;BME280;50353;51.420;5.682;2023-02-14T04:30:45;103149.38;;;2.50;94.52
64095;BME280;50353;51.420;5.682;2023-02-14T04:33:10;103148.78;;;2.74;90.64
64095;BME280;50353;51.420;5.682;2023-02-14T04:35:36;103149.72;;;2.82;92.40
64095;BME280;50353;51.420;5.682;2023-02-14T04:38:02;103146.91;;;2.64;92.75
64095;BME280;50353;51.420;5.682;2023-02-14T04:40:28;103146.06;;;2.63;92.96
64095;BME280;50353;51.420;5.682;2023-02-14T04:42:53;103143.13;;;2.37;89.72
64095;BME280;50353;51.420;5.682;2023-02-14T04:45:18;103148.63;;;1.88;89.58
64095;BME280;50353;51.420;5.682;2023-02-14T04:47:44;103139.97;;;1.91;92.81
64095;BME280;50353;51.420;5.682;2023-02-14T04:50:10;103143.47;;;1.93;94.29
64095;BME280;50353;51.420;5.682;2023-02-14T04:52:35;103143.63;;;2.03;93.94
64095;BME280;50353;51.420;5.682;2023-02-14T04:55:01;103135.81;;;2.07;93.38
64095;BME280;50353;51.420;5.682;2023-02-14T04:57:27;103140.19;;;2.08;92.00
64095;BME280;50353;51.420;5.682;2023-02-14T04:59:52;103140.22;;;2.11;91.16
64095;BME280;50353;51.420;5.682;2023-02-14T05:02:17;103134.13;;;2.09;89.48
64095;BME280;50353;51.420;5.682;2023-02-14T05:04:43;103135.81;;;2.07;89.67
64095;BME280;50353;51.420;5.682;2023-02-14T05:07:08;103134.34;;;2.29;87.99
64095;BME280;50353;51.420;5.682;2023-02-14T05:09:33;103128.03;;;2.10;86.71
64095;BME280;50353;51.420;5.682;2023-02-14T05:11:59;103124.38;;;1.95;87.03
64095;BME280;50353;51.420;5.682;2023-02-14T05:14:24;103124.06;;;1.71;87.43
64095;BME280;50353;51.420;5.682;2023-02-14T05:16:49;103129.38;;;1.80;89.06
64095;BME280;50353;51.420;5.682;2023-02-14T05:19:15;103124.72;;;1.56;88.99
64095;BME280;50353;51.420;5.682;2023-02-14T05:21:40;103116.81;;;1.51;88.88
64095;BME280;50353;51.420;5.682;2023-02-14T05:24:06;103122.03;;;1.51;89.69
64095;BME280;50353;51.420;5.682;2023-02-14T05:26:31;103112.06;;;1.22;88.89
64095;BME280;50353;51.420;5.682;2023-02-14T05:28:56;103112.69;;;1.65;87.61
64095;BME280;50353;51.420;5.682;2023-02-14T05:31:21;103114.28;;;1.54;87.95
64095;BME280;50353;51.420;5.682;2023-02-14T05:33:47;103112.53;;;1.55;86.96
64095;BME280;50353;51.420;5.682;2023-02-14T05:36:12;103113.53;;;1.63;87.22
64095;BME280;50353;51.420;5.682;2023-02-14T05:38:38;103116.94;;;1.59;85.87
64095;BME280;50353;51.420;5.682;2023-02-14T05:41:03;103110.91;;;1.63;86.76
64095;BME280;50353;51.420;5.682;2023-02-14T05:43:29;103112.56;;;1.58;86.69
64095;BME280;50353;51.420;5.682;2023-02-14T05:45:54;103116.81;;;1.51;85.49
64095;BME280;50353;51.420;5.682;2023-02-14T05:48:20;103115.59;;;1.26;85.61
64095;BME280;50353;51.420;5.682;2023-02-14T05:50:45;103121.06;;;1.44;89.43
64095;BME280;50353;51.420;5.682;2023-02-14T05:53:11;103115.84;;;1.44;89.67
64095;BME280;50353;51.420;5.682;2023-02-14T05:55:37;103116.59;;;1.35;87.99
64095;BME280;50353;51.420;5.682;2023-02-14T05:58:02;103116.50;;;1.31;87.43
64095;BME280;50353;51.420;5.682;2023-02-14T06:00:27;103123.81;;;1.54;89.49
64095;BME280;50353;51.420;5.682;2023-02-14T06:02:53;103123.19;;;1.12;86.01
64095;BME280;50353;51.420;5.682;2023-02-14T06:05:18;103122.53;;;1.27;86.96
64095;BME280;50353;51.420;5.682;2023-02-14T06:07:44;103120.03;;;1.31;91.02
64095;BME280;50353;51.420;5.682;2023-02-14T06:10:19;103121.84;;;1.37;89.99
64095;BME280;50353;51.420;5.682;2023-02-14T06:12:47;103125.28;;;1.34;92.06
64095;BME280;50353;51.420;5.682;2023-02-14T06:15:13;103126.41;;;1.54;91.32
64095;BME280;50353;51.420;5.682;2023-02-14T06:17:38;103126.00;;;1.24;91.47
64095;BME280;50353;51.420;5.682;2023-02-14T06:20:04;103130.41;;;1.28;90.61
64095;BME280;50353;51.420;5.682;2023-02-14T06:22:30;103128.69;;;1.30;89.46
64095;BME280;50353;51.420;5.682;2023-02-14T06:24:55;103115.75;;;1.35;87.95
64095;BME280;50353;51.420;5.682;2023-02-14T06:27:20;103126.22;;;1.40;86.38
64095;BME280;50353;51.420;5.682;2023-02-14T06:29:46;103123.41;;;1.26;87.11
64095;BME280;50353;51.420;5.682;2023-02-14T06:32:11;103127.66;;;1.19;88.43
64095;BME280;50353;51.420;5.682;2023-02-14T06:34:36;103127.44;;;1.05;89.42
64095;BME280;50353;51.420;5.682;2023-02-14T06:37:03;103133.94;;;1.33;91.16
64095;BME280;50353;51.420;5.682;2023-02-14T06:39:29;103132.28;;;1.39;90.50
64095;BME280;50353;51.420;5.682;2023-02-14T06:41:54;103129.78;;;1.45;90.81
64095;BME280;50353;51.420;5.682;2023-02-14T06:44:19;103132.25;;;1.35;91.01
64095;BME280;50353;51.420;5.682;2023-02-14T06:46:45;103133.53;;;1.64;89.89
64095;BME280;50353;51.420;5.682;2023-02-14T06:49:10;103127.41;;;1.62;88.87
64095;BME280;50353;51.420;5.682;2023-02-14T06:51:35;103137.59;;;1.45;87.83
64095;BME280;50353;51.420;5.682;2023-02-14T06:54:00;103129.16;;;1.61;87.59
64095;BME280;50353;51.420;5.682;2023-02-14T06:56:26;103139.59;;;1.64;87.83
64095;BME280;50353;51.420;5.682;2023-02-14T06:58:52;103133.59;;;1.70;88.06
64095;BME280;50353;51.420;5.682;2023-02-14T07:01:17;103138.59;;;1.55;87.47
64095;BME280;50353;51.420;5.682;2023-02-14T07:03:42;103135.97;;;1.53;91.36
64095;BME280;50353;51.420;5.682;2023-02-14T07:06:08;103138.59;;;1.53;88.01
64095;BME280;50353;51.420;5.682;2023-02-14T07:08:33;103134.34;;;1.61;88.76
64095;BME280;50353;51.420;5.682;2023-02-14T07:10:58;103137.81;;;1.60;86.98
64095;BME280;50353;51.420;5.682;2023-02-14T07:13:24;103135.31;;;1.66;88.76
64095;BME280;50353;51.420;5.682;2023-02-14T07:15:49;103136.38;;;1.84;87.09
64095;BME280;50353;51.420;5.682;2023-02-14T07:18:15;103139.75;;;1.75;85.94
64095;BME280;50353;51.420;5.682;2023-02-14T07:20:40;103144.97;;;1.75;87.28
64095;BME280;50353;51.420;5.682;2023-02-14T07:23:05;103145.16;;;1.89;90.16
64095;BME280;50353;51.420;5.682;2023-02-14T07:25:31;103144.16;;;1.79;88.58
64095;BME280;50353;51.420;5.682;2023-02-14T07:27:56;103148.56;;;1.82;89.53
64095;BME280;50353;51.420;5.682;2023-02-14T07:30:22;103150.50;;;1.98;87.82
64095;BME280;50353;51.420;5.682;2023-02-14T07:32:47;103144.28;;;1.89;91.04
64095;BME280;50353;51.420;5.682;2023-02-14T07:35:12;103153.09;;;1.97;92.40
64095;BME280;50353;51.420;5.682;2023-02-14T07:37:38;103155.88;;;2.09;92.34
64095;BME280;50353;51.420;5.682;2023-02-14T07:40:03;103144.75;;;2.26;91.24
64095;BME280;50353;51.420;5.682;2023-02-14T07:42:30;103150.06;;;2.33;91.15
64095;BME280;50353;51.420;5.682;2023-02-14T07:44:55;103145.03;;;2.50;89.56
64095;BME280;50353;51.420;5.682;2023-02-14T07:47:20;103130.38;;;2.63;91.21
64095;BME280;50353;51.420;5.682;2023-02-14T07:49:46;103141.09;;;2.93;91.59
64095;BME280;50353;51.420;5.682;2023-02-14T07:52:11;103146.31;;;2.94;90.76
64095;BME280;50353;51.420;5.682;2023-02-14T07:54:36;103150.06;;;3.24;89.33
64095;BME280;50353;51.420;5.682;2023-02-14T07:57:03;103148.44;;;3.35;88.79
64095;BME280;50353;51.420;5.682;2023-02-14T07:59:28;103143.31;;;3.55;89.16
64095;BME280;50353;51.420;5.682;2023-02-14T08:01:54;103141.66;;;3.68;89.58
64095;BME280;50353;51.420;5.682;2023-02-14T08:04:19;103147.03;;;3.93;90.23
64095;BME280;50353;51.420;5.682;2023-02-14T08:06:45;103137.47;;;3.98;89.37
64095;BME280;50353;51.420;5.682;2023-02-14T08:09:10;103137.53;;;4.17;89.59
64095;BME280;50353;51.420;5.682;2023-02-14T08:11:36;103142.72;;;4.01;90.28
64095;BME280;50353;51.420;5.682;2023-02-14T08:14:21;103145.38;;;4.15;89.79
64095;BME280;50353;51.420;5.682;2023-02-14T08:16:46;103146.22;;;4.06;90.74
64095;BME280;50353;51.420;5.682;2023-02-14T08:19:12;103127.94;;;4.23;89.95
64095;BME280;50353;51.420;5.682;2023-02-14T08:21:37;103134.97;;;4.35;90.53
64095;BME280;50353;51.420;5.682;2023-02-14T08:24:04;103134.19;;;4.60;89.94
64095;BME280;50353;51.420;5.682;2023-02-14T08:26:29;103135.94;;;4.64;90.31
64095;BME280;50353;51.420;5.682;2023-02-14T08:28:55;103128.06;;;4.68;90.87
64095;BME280;50353;51.420;5.682;2023-02-14T08:31:26;103118.47;;;4.89;89.51
64095;BME280;50353;51.420;5.682;2023-02-14T08:33:51;103123.72;;;4.97;89.77
64095;BME280;50353;51.420;5.682;2023-02-14T08:36:17;103131.56;;;5.14;89.11
64095;BME280;50353;51.420;5.682;2023-02-14T08:38:43;103129.84;;;5.08;89.98
64095;BME280;50353;51.420;5.682;2023-02-14T08:41:11;103120.22;;;5.24;89.60
64095;BME280;50353;51.420;5.682;2023-02-14T08:43:37;103129.84;;;5.25;89.45
64095;BME280;50353;51.420;5.682;2023-02-14T08:46:02;103125.44;;;5.38;89.36
64095;BME280;50353;51.420;5.682;2023-02-14T08:48:28;103121.06;;;5.48;89.03
64095;BME280;50353;51.420;5.682;2023-02-14T08:50:53;103123.63;;;5.62;88.73
64095;BME280;50353;51.420;5.682;2023-02-14T08:53:18;103126.25;;;5.75;87.97
64095;BME280;50353;51.420;5.682;2023-02-14T08:55:44;103120.16;;;5.63;88.73
64095;BME280;50353;51.420;5.682;2023-02-14T08:58:10;103118.41;;;5.58;89.22
64095;BME280;50353;51.420;5.682;2023-02-14T09:00:35;103116.56;;;5.95;88.09
64095;BME280;50353;51.420;5.682;2023-02-14T09:03:00;103113.13;;;5.72;89.16
64095;BME280;50353;51.420;5.682;2023-02-14T09:05:26;103120.03;;;5.97;88.27
64095;BME280;50353;51.420;5.682;2023-02-14T09:07:51;103108.66;;;6.08;88.21
64095;BME280;50353;51.420;5.682;2023-02-14T09:10:17;103113.88;;;6.10;87.62
64095;BME280;50353;51.420;5.682;2023-02-14T09:12:44;103112.13;;;6.15;88.08
64095;BME280;50353;51.420;5.682;2023-02-14T09:15:10;103112.94;;;6.26;87.86
64095;BME280;50353;51.420;5.682;2023-02-14T09:17:37;103115.50;;;6.37;87.28
64095;BME280;50353;51.420;5.682;2023-02-14T09:20:07;103096.25;;;6.38;87.58
64095;BME280;50353;51.420;5.682;2023-02-14T09:22:33;103113.59;;;6.61;86.62
64095;BME280;50353;51.420;5.682;2023-02-14T09:24:59;103111.69;;;6.83;85.77
64095;BME280;50353;51.420;5.682;2023-02-14T09:27:25;103105.56;;;6.81;84.85
64095;BME280;50353;51.420;5.682;2023-02-14T09:29:50;103109.78;;;6.99;85.30
64095;BME280;50353;51.420;5.682;2023-02-14T09:32:15;103114.13;;;7.03;85.45
64095;BME280;50353;51.420;5.682;2023-02-14T09:34:41;103116.56;;;7.26;84.28
64095;BME280;50353;51.420;5.682;2023-02-14T09:37:24;103114.63;;;7.45;82.69
64095;BME280;50353;51.420;5.682;2023-02-14T09:40:12;103107.66;;;7.41;83.43
64095;BME280;50353;51.420;5.682;2023-02-14T09:42:52;103105.81;;;7.53;83.11
64095;BME280;50353;51.420;5.682;2023-02-14T09:45:24;103099.03;;;7.28;83.83
64095;BME280;50353;51.420;5.682;2023-02-14T09:47:57;103111.75;;;7.69;85.15
64095;BME280;50353;51.420;5.682;2023-02-14T09:50:42;103086.13;;;7.85;82.64
64095;BME280;50353;51.420;5.682;2023-02-14T09:53:19;103102.50;;;8.10;82.52
64095;BME280;50353;51.420;5.682;2023-02-14T09:56:00;103097.16;;;8.13;82.55
64095;BME280;50353;51.420;5.682;2023-02-14T09:58:33;103093.47;;;8.26;81.44
64095;BME280;50353;51.420;5.682;2023-02-14T10:06:22;103093.63;;;8.76;79.79
64095;BME280;50353;51.420;5.682;2023-02-14T10:11:44;103079.41;;;8.87;78.39
64095;BME280;50353;51.420;5.682;2023-02-14T10:14:13;103080.66;;;9.16;79.06
64095;BME280;50353;51.420;5.682;2023-02-14T10:17:00;103090.25;;;9.20;77.20
64095;BME280;50353;51.420;5.682;2023-02-14T10:19:40;103087.59;;;9.21;77.05
64095;BME280;50353;51.420;5.682;2023-02-14T10:22:14;103094.19;;;9.45;76.49
64095;BME280;50353;51.420;5.682;2023-02-14T10:24:53;103080.97;;;9.45;78.13
64095;BME280;50353;51.420;5.682;2023-02-14T10:27:34;103086.84;;;9.61;76.84
64095;BME280;50353;51.420;5.682;2023-02-14T10:30:00;103090.09;;;9.74;76.55
64095;BME280;50353;51.420;5.682;2023-02-14T10:33:07;103090.19;;;9.70;76.76
64095;BME280;50353;51.420;5.682;2023-02-14T10:35:49;103089.72;;;9.93;76.40
64095;BME280;50353;51.420;5.682;2023-02-14T10:41:54;103081.34;;;10.14;75.42
64095;BME280;50353;51.420;5.682;2023-02-14T10:47:09;103071.41;;;9.84;73.72
64095;BME280;50353;51.420;5.682;2023-02-14T10:49:47;103074.94;;;10.23;72.08
64095;BME280;50353;51.420;5.682;2023-02-14T10:52:26;103074.06;;;10.24;72.64
64095;BME280;50353;51.420;5.682;2023-02-14T10:54:55;103069.25;;;10.43;71.64
64095;BME280;50353;51.420;5.682;2023-02-14T10:59:53;103072.47;;;10.17;73.58
64095;BME280;50353;51.420;5.682;2023-02-14T11:02:23;103068.50;;;9.96;72.85
64095;BME280;50353;51.420;5.682;2023-02-14T11:04:51;103061.28;;;10.45;71.49
64095;BME280;50353;51.420;5.682;2023-02-14T11:07:19;103060.16;;;10.54;70.53
64095;BME280;50353;51.420;5.682;2023-02-14T11:09:45;103056.94;;;10.78;69.88
64095;BME280;50353;51.420;5.682;2023-02-14T11:12:11;103052.22;;;10.90;71.20
64095;BME280;50353;51.420;5.682;2023-02-14T11:14:38;103047.25;;;10.77;70.82
64095;BME280;50353;51.420;5.682;2023-02-14T11:19:59;103047.94;;;11.19;70.01
64095;BME280;50353;51.420;5.682;2023-02-14T11:22:30;103041.16;;;11.40;69.06
64095;BME280;50353;51.420;5.682;2023-02-14T11:25:17;103037.16;;;11.26;68.61
64095;BME280;50353;51.420;5.682;2023-02-14T11:27:43;103042.88;;;11.72;67.97
64095;BME280;50353;51.420;5.682;2023-02-14T11:30:30;103029.84;;;11.66;67.79
64095;BME280;50353;51.420;5.682;2023-02-14T11:32:58;103032.22;;;11.75;66.79
64095;BME280;50353;51.420;5.682;2023-02-14T11:35:26;103017.75;;;11.86;67.18
64095;BME280;50353;51.420;5.682;2023-02-14T11:37:58;103034.41;;;11.61;67.62
64095;BME280;50353;51.420;5.682;2023-02-14T11:45:39;103016.44;;;12.29;64.78
64095;BME280;50353;51.420;5.682;2023-02-14T11:50:40;103007.78;;;12.24;62.36
64095;BME280;50353;51.420;5.682;2023-02-14T11:53:10;103002.91;;;12.38;62.03
64095;BME280;50353;51.420;5.682;2023-02-14T11:55:37;103007.44;;;12.61;62.63
64095;BME280;50353;51.420;5.682;2023-02-14T11:58:05;102981.81;;;12.33;62.81
64095;BME280;50353;51.420;5.682;2023-02-14T12:00:32;102994.06;;;12.38;63.04
64095;BME280;50353;51.420;5.682;2023-02-14T12:03:00;102982.66;;;12.36;60.33
64095;BME280;50353;51.420;5.682;2023-02-14T12:05:34;102988.38;;;12.48;60.74
64095;BME280;50353;51.420;5.682;2023-02-14T12:08:05;102968.41;;;12.38;61.37
64095;BME280;50353;51.420;5.682;2023-02-14T12:10:33;102977.13;;;12.42;62.49
64095;BME280;50353;51.420;5.682;2023-02-14T12:15:33;102970.72;;;12.74;61.76
64095;BME280;50353;51.420;5.682;2023-02-14T12:21:34;102959.28;;;12.97;59.72
64095;BME280;50353;51.420;5.682;2023-02-14T12:24:34;102957.50;;;12.98;61.72
64095;BME280;50353;51.420;5.682;2023-02-14T12:27:23;102956.94;;;13.13;60.44
64095;BME280;50353;51.420;5.682;2023-02-14T12:30:03;102939.50;;;13.06;60.14
64095;BME280;50353;51.420;5.682;2023-02-14T12:32:33;102938.16;;;13.18;60.82
64095;BME280;50353;51.420;5.682;2023-02-14T12:37:53;102943.53;;;12.93;59.85
64095;BME280;50353;51.420;5.682;2023-02-14T12:40:32;102934.41;;;13.24;59.22
64095;BME280;50353;51.420;5.682;2023-02-14T12:51:29;102923.56;;;13.06;57.71
64095;BME280;50353;51.420;5.682;2023-02-14T12:56:53;102916.09;;;12.92;58.16
64095;BME280;50353;51.420;5.682;2023-02-14T12:59:53;102909.94;;;12.92;59.00
64095;BME280;50353;51.420;5.682;2023-02-14T13:08:05;102891.00;;;13.01;57.23
64095;BME280;50353;51.420;5.682;2023-02-14T13:16:17;102885.44;;;13.07;57.77
64095;BME280;50353;51.420;5.682;2023-02-14T13:21:47;102893.84;;;13.20;56.21
64095;BME280;50353;51.420;5.682;2023-02-14T13:24:20;102888.47;;;13.22;57.10
64095;BME280;50353;51.420;5.682;2023-02-14T13:26:53;102879.09;;;13.11;57.55
64095;BME280;50353;51.420;5.682;2023-02-14T13:29:22;102885.69;;;13.01;58.63
64095;BME280;50353;51.420;5.682;2023-02-14T13:31:50;102872.56;;;12.98;58.51
64095;BME280;50353;51.420;5.682;2023-02-14T13:34:34;102882.69;;;12.87;57.98
64095;BME280;50353;51.420;5.682;2023-02-14T13:37:02;102873.63;;;12.92;58.31
64095;BME280;50353;51.420;5.682;2023-02-14T13:39:35;102863.69;;;12.97;58.28
64095;BME280;50353;51.420;5.682;2023-02-14T13:42:01;102870.03;;;13.17;56.37
64095;BME280;50353;51.420;5.682;2023-02-14T13:44:49;102856.25;;;13.07;58.66
64095;BME280;50353;51.420;5.682;2023-02-14T13:47:22;102863.75;;;13.19;57.73
64095;BME280;50353;51.420;5.682;2023-02-14T13:50:01;102860.50;;;13.11;57.16
64095;BME280;50353;51.420;5.682;2023-02-14T13:52:47;102856.84;;;12.92;57.42
64095;BME280;50353;51.420;5.682;2023-02-14T13:55:16;102840.78;;;12.71;58.72
64095;BME280;50353;51.420;5.682;2023-02-14T13:57:42;102852.31;;;12.94;59.66
64095;BME280;50353;51.420;5.682;2023-02-14T14:02:55;102855.28;;;12.86;58.39
64095;BME280;50353;51.420;5.682;2023-02-14T14:19:33;102832.50;;;12.80;58.09
64095;BME280;50353;51.420;5.682;2023-02-14T14:22:01;102831.22;;;12.91;58.57
64095;BME280;50353;51.420;5.682;2023-02-14T14:24:29;102809.34;;;12.84;58.07
64095;BME280;50353;51.420;5.682;2023-02-14T14:27:14;102830.00;;;12.76;58.62
64095;BME280;50353;51.420;5.682;2023-02-14T14:29:51;102824.69;;;12.76;59.29
64095;BME280;50353;51.420;5.682;2023-02-14T14:32:23;102829.34;;;12.69;58.45
64095;BME280;50353;51.420;5.682;2023-02-14T14:35:01;102824.28;;;12.63;58.67
64095;BME280;50353;51.420;5.682;2023-02-14T14:37:35;102824.50;;;12.57;58.96
64095;BME280;50353;51.420;5.682;2023-02-14T14:40:04;102827.66;;;12.43;61.00
64095;BME280;50353;51.420;5.682;2023-02-14T14:42:38;102823.88;;;12.50;59.75
64095;BME280;50353;51.420;5.682;2023-02-14T14:45:07;102816.16;;;12.44;57.86
64095;BME280;50353;51.420;5.682;2023-02-14T14:47:44;102821.22;;;12.50;58.27
64095;BME280;50353;51.420;5.682;2023-02-14T14:50:26;102823.19;;;12.45;59.54
64095;BME280;50353;51.420;5.682;2023-02-14T14:53:01;102818.91;;;12.41;60.25
64095;BME280;50353;51.420;5.682;2023-02-14T14:55:30;102820.88;;;12.36;59.84
64095;BME280;50353;51.420;5.682;2023-02-14T14:57:59;102805.94;;;12.33;60.90
64095;BME280;50353;51.420;5.682;2023-02-14T15:00:32;102798.56;;;12.41;59.59
64095;BME280;50353;51.420;5.682;2023-02-14T15:05:32;102802.66;;;12.50;58.42
64095;BME280;50353;51.420;5.682;2023-02-14T15:10:54;102803.97;;;12.38;59.31
64095;BME280;50353;51.420;5.682;2023-02-14T15:13:29;102807.94;;;12.26;58.80
64095;BME280;50353;51.420;5.682;2023-02-14T15:16:19;102792.06;;;12.25;59.09